createdAt,value
2018-07-09T00:03:01.506Z,14.97
2018-07-09T00:06:06.005Z,14.89
2018-07-09T00:09:10.358Z,14.85
2018-07-09T00:12:14.705Z,14.84
2018-07-09T00:15:19.031Z,14.82
2018-07-09T00:18:23.344Z,14.80
2018-07-09T00:21:28.609Z,14.79
2018-07-09T00:24:33.533Z,14.67
2018-07-09T00:27:37.832Z,14.63
2018-07-09T00:30:42.241Z,14.63
2018-07-09T00:33:46.626Z,14.56
2018-07-09T00:36:50.977Z,14.63
2018-07-09T00:39:55.272Z,14.57
2018-07-09T00:42:59.613Z,14.63
2018-07-09T00:46:04.805Z,14.56
2018-07-09T00:49:09.494Z,14.48
2018-07-09T00:52:13.835Z,14.43
2018-07-09T00:55:18.413Z,14.49
2018-07-09T00:58:23.188Z,14.52
2018-07-09T01:01:27.905Z,14.37
2018-07-09T01:04:32.230Z,14.23
2018-07-09T01:07:37.945Z,14.25
2018-07-09T01:10:53.349Z,14.24
2018-07-09T01:13:57.713Z,14.14
2018-07-09T01:17:02.013Z,14.13
2018-07-09T01:20:06.454Z,14.14
2018-07-09T01:23:11.198Z,14.15
2018-07-09T01:26:15.722Z,14.07
2018-07-09T01:29:20.182Z,14.06
2018-07-09T01:32:24.657Z,14.11
2018-07-09T01:35:29.389Z,14.12
2018-07-09T01:38:33.734Z,14.14
2018-07-09T01:41:38.065Z,14.24
2018-07-09T01:44:42.452Z,14.25
2018-07-09T01:47:46.951Z,14.30
2018-07-09T01:50:51.298Z,14.28
2018-07-09T01:53:55.618Z,14.22
2018-07-09T01:57:00.149Z,14.24
2018-07-09T02:00:05.078Z,14.30
2018-07-09T02:03:09.598Z,14.28
2018-07-09T02:06:13.886Z,14.33
2018-07-09T02:09:17.940Z,14.38
2018-07-09T02:12:22.202Z,14.46
2018-07-09T02:15:26.582Z,14.51
2018-07-09T02:18:31.052Z,14.45
2018-07-09T02:21:35.320Z,14.11
2018-07-09T02:24:39.668Z,14.17
2018-07-09T02:27:43.945Z,14.27
2018-07-09T02:30:48.555Z,14.32
2018-07-09T02:33:52.893Z,14.28
2018-07-09T02:36:57.165Z,14.34
2018-07-09T02:40:01.417Z,14.27
2018-07-09T02:43:05.837Z,14.13
2018-07-09T02:46:10.754Z,14.00
2018-07-09T02:49:15.065Z,13.97
2018-07-09T02:52:19.529Z,14.12
2018-07-09T02:55:23.899Z,14.06
2018-07-09T02:58:28.200Z,13.99
2018-07-09T03:01:33.142Z,13.88
2018-07-09T03:04:37.549Z,13.80
2018-07-09T03:07:41.798Z,13.74
2018-07-09T03:10:46.147Z,13.86
2018-07-09T03:13:50.437Z,13.90
2018-07-09T03:16:54.697Z,13.76
2018-07-09T03:19:59.055Z,13.63
2018-07-09T03:23:03.341Z,13.79
2018-07-09T03:26:08.239Z,13.94
2018-07-09T03:29:12.560Z,13.97
2018-07-09T03:32:16.833Z,14.03
2018-07-09T03:35:20.953Z,14.10
2018-07-09T03:38:25.287Z,14.13
2018-07-09T03:41:30.645Z,14.09
2018-07-09T03:44:34.891Z,14.07
2018-07-09T03:47:39.296Z,14.08
2018-07-09T03:50:43.637Z,13.93
2018-07-09T03:53:48.012Z,13.97
2018-07-09T03:56:52.290Z,14.14
2018-07-09T03:59:56.586Z,14.15
2018-07-09T04:03:01.053Z,14.26
2018-07-09T04:06:05.394Z,14.34
2018-07-09T04:09:09.709Z,14.39
2018-07-09T04:12:14.225Z,14.59
2018-07-09T04:15:18.585Z,14.76
2018-07-09T04:18:24.394Z,14.85
2018-07-09T04:24:38.269Z,15.43
2018-07-09T04:27:42.963Z,15.76
2018-07-09T04:30:47.762Z,15.82
2018-07-09T04:33:52.109Z,15.81
2018-07-09T04:36:57.056Z,15.97
2018-07-09T04:40:01.374Z,16.05
2018-07-09T04:43:05.789Z,16.17
2018-07-09T04:46:10.090Z,16.20
2018-07-09T04:49:31.206Z,16.06
2018-07-09T04:52:35.585Z,16.04
2018-07-09T04:55:40.007Z,16.09
2018-07-09T04:58:44.297Z,15.93
2018-07-09T05:01:49.342Z,15.82
2018-07-09T05:04:55.569Z,16.34
2018-07-09T05:07:59.620Z,16.40
2018-07-09T05:11:03.898Z,16.59
2018-07-09T05:14:08.490Z,16.74
2018-07-09T05:17:12.946Z,16.99
2018-07-09T05:20:17.252Z,17.17
2018-07-09T05:23:21.764Z,17.20
2018-07-09T05:26:26.142Z,17.26
2018-07-09T05:29:30.448Z,17.42
2018-07-09T05:32:34.738Z,17.39
2018-07-09T05:35:39.012Z,17.55
2018-07-09T05:38:44.239Z,17.70
2018-07-09T05:41:48.507Z,17.96
2018-07-09T05:44:52.954Z,18.46
2018-07-09T05:47:57.275Z,18.82
2018-07-09T05:51:02.067Z,18.83
2018-07-09T05:54:06.411Z,19.11
2018-07-09T05:57:10.689Z,19.39
2018-07-09T06:00:14.954Z,18.90
2018-07-09T06:03:19.309Z,18.95
2018-07-09T06:06:23.601Z,18.32
2018-07-09T06:09:27.859Z,18.11
2018-07-09T06:12:32.593Z,18.90
2018-07-09T06:15:36.865Z,19.26
2018-07-09T06:18:41.200Z,17.96
2018-07-09T06:21:55.015Z,17.67
2018-07-09T06:25:00.324Z,18.32
2018-07-09T06:28:04.685Z,18.20
2018-07-09T06:31:09.270Z,18.52
2018-07-09T06:34:13.542Z,18.75
2018-07-09T06:37:18.383Z,21.38
2018-07-09T06:40:22.706Z,23.23
2018-07-09T06:43:27.076Z,21.64
2018-07-09T06:46:31.312Z,23.21
2018-07-09T06:49:35.766Z,24.81
2018-07-09T06:52:40.145Z,25.49
2018-07-09T06:55:45.072Z,25.58
2018-07-09T06:58:49.439Z,25.23
2018-07-09T07:01:53.809Z,25.75
2018-07-09T07:04:58.156Z,26.14
2018-07-09T07:08:03.423Z,25.99
2018-07-09T07:11:08.353Z,22.62
2018-07-09T07:14:12.855Z,23.52
2018-07-09T07:17:17.381Z,23.24
2018-07-09T07:20:22.012Z,23.63
2018-07-09T07:23:26.315Z,24.54
2018-07-09T07:26:31.271Z,25.18
2018-07-09T07:29:36.137Z,24.73
2018-07-09T07:32:40.545Z,25.06
2018-07-09T07:35:44.974Z,24.56
2018-07-09T07:38:49.323Z,24.37
2018-07-09T07:41:53.661Z,23.09
2018-07-09T07:44:58.001Z,22.88
2018-07-09T07:48:02.320Z,22.94
2018-07-09T07:51:07.011Z,22.70
2018-07-09T07:54:12.386Z,22.98
2018-07-09T07:57:16.792Z,23.30
2018-07-09T08:00:21.176Z,24.21
2018-07-09T08:03:25.537Z,25.11
2018-07-09T08:06:30.145Z,24.92
2018-07-09T08:09:34.602Z,24.95
2018-07-09T08:15:43.104Z,23.46
2018-07-09T08:18:48.019Z,24.21
2018-07-09T08:21:53.429Z,23.87
2018-07-09T08:28:01.357Z,22.14
2018-07-09T08:31:05.823Z,22.03
2018-07-09T08:34:10.068Z,22.69
2018-07-09T08:37:14.346Z,22.60
2018-07-09T08:40:19.421Z,22.53
2018-07-09T08:43:24.983Z,22.05
2018-07-09T08:46:29.318Z,22.05
2018-07-09T08:49:33.710Z,22.16
2018-07-09T08:52:37.977Z,22.84
2018-07-09T08:55:42.408Z,22.94
2018-07-09T08:58:46.679Z,23.46
2018-07-09T09:01:51.132Z,23.39
2018-07-09T09:04:55.753Z,23.12
2018-07-09T09:08:00.014Z,23.43
2018-07-09T09:11:05.168Z,23.82
2018-07-09T09:14:09.460Z,23.60
2018-07-09T09:17:13.784Z,23.59
2018-07-09T09:20:18.065Z,23.47
2018-07-09T09:23:22.653Z,24.01
2018-07-09T09:26:26.931Z,23.84
2018-07-09T09:29:31.202Z,23.15
2018-07-09T09:32:35.463Z,23.12
2018-07-09T09:35:39.877Z,22.91
2018-07-09T09:38:44.932Z,23.56
2018-07-09T09:41:49.252Z,23.96
2018-07-09T09:44:54.146Z,23.99
2018-07-09T09:47:58.506Z,24.57
2018-07-09T09:51:02.863Z,24.39
2018-07-09T09:54:07.501Z,23.67
2018-07-09T09:57:11.761Z,23.97
2018-07-09T10:00:16.984Z,23.30
2018-07-09T10:03:21.289Z,23.36
2018-07-09T10:06:25.893Z,24.37
2018-07-09T10:09:30.506Z,24.27
2018-07-09T10:12:34.829Z,24.52
2018-07-09T10:15:39.311Z,23.46
2018-07-09T10:18:44.152Z,23.65
2018-07-09T10:21:48.440Z,23.68
2018-07-09T10:24:52.500Z,24.01
2018-07-09T10:27:56.989Z,24.33
2018-07-09T10:31:01.295Z,24.58
2018-07-09T10:37:16.506Z,24.28
2018-07-09T10:40:21.180Z,24.82
2018-07-09T10:43:25.629Z,24.86
2018-07-09T10:46:30.312Z,24.73
2018-07-09T10:49:34.695Z,25.09
2018-07-09T10:52:39.127Z,24.38
2018-07-09T10:55:43.510Z,24.47
2018-07-09T10:58:47.826Z,24.47
2018-07-09T11:01:52.491Z,24.78
2018-07-09T11:04:57.584Z,25.19
2018-07-09T11:08:01.899Z,25.03
2018-07-09T11:11:06.461Z,24.81
2018-07-09T11:14:10.752Z,24.96
2018-07-09T11:17:15.063Z,25.12
2018-07-09T11:20:20.282Z,25.00
2018-07-09T11:23:24.566Z,24.53
2018-07-09T11:26:29.006Z,24.95
2018-07-09T11:29:33.363Z,25.22
2018-07-09T11:32:37.645Z,25.74
2018-07-09T11:35:42.100Z,25.32
2018-07-09T11:38:46.380Z,25.08
2018-07-09T11:41:51.161Z,24.87
2018-07-09T11:44:55.987Z,25.12
2018-07-09T11:48:00.264Z,25.18
2018-07-09T11:51:04.702Z,25.11
2018-07-09T11:54:08.993Z,25.53
2018-07-09T11:57:13.939Z,25.18
2018-07-09T12:00:18.220Z,25.46
2018-07-09T12:03:22.506Z,25.49
2018-07-09T12:06:26.837Z,25.56
2018-07-09T12:09:31.773Z,25.54
2018-07-09T12:12:36.155Z,25.83
2018-07-09T12:15:40.541Z,25.64
2018-07-09T12:18:45.006Z,25.71
2018-07-09T12:21:49.400Z,25.49
2018-07-09T12:24:54.814Z,25.73
2018-07-09T12:27:59.387Z,25.95
2018-07-09T12:31:03.652Z,26.30
2018-07-09T12:34:07.947Z,25.81
2018-07-09T12:37:12.260Z,25.18
2018-07-09T12:40:16.566Z,25.02
2018-07-09T12:43:21.488Z,24.67
2018-07-09T12:46:25.863Z,25.30
2018-07-09T12:49:30.290Z,26.41
2018-07-09T12:52:34.685Z,25.77
2018-07-09T12:55:39.110Z,26.21
2018-07-09T12:58:43.341Z,26.31
2018-07-09T13:01:47.807Z,25.82
2018-07-09T13:04:52.595Z,25.38
2018-07-09T13:07:57.059Z,25.78
2018-07-09T13:11:01.491Z,25.96
2018-07-09T13:14:05.874Z,26.10
2018-07-09T13:17:10.158Z,26.82
2018-07-09T13:20:14.472Z,25.89
2018-07-09T13:23:18.941Z,26.19
2018-07-09T13:26:23.293Z,26.13
2018-07-09T13:29:27.413Z,25.61
2018-07-09T13:32:32.595Z,25.47
2018-07-09T13:35:37.094Z,25.40
2018-07-09T13:38:41.553Z,25.43
2018-07-09T13:41:46.254Z,25.97
2018-07-09T13:44:52.004Z,25.64
2018-07-09T13:47:56.289Z,25.71
2018-07-09T13:51:01.165Z,25.50
2018-07-09T13:54:05.733Z,25.41
2018-07-09T13:57:16.584Z,25.77
2018-07-09T14:00:21.094Z,26.45
2018-07-09T14:03:25.760Z,25.87
2018-07-09T14:06:30.215Z,25.96
2018-07-09T14:09:36.042Z,25.99
2018-07-09T14:12:40.862Z,25.27
2018-07-09T14:15:45.288Z,25.06
2018-07-09T14:18:49.910Z,24.80
2018-07-09T14:21:54.116Z,24.98
2018-07-09T14:24:58.556Z,25.24
2018-07-09T14:28:02.662Z,25.45
2018-07-09T14:31:08.109Z,25.44
2018-07-09T14:34:12.514Z,25.39
2018-07-09T14:37:17.000Z,25.74
2018-07-09T14:40:21.408Z,25.53
2018-07-09T14:43:25.747Z,25.64
2018-07-09T14:46:30.758Z,25.50
2018-07-09T14:49:35.284Z,25.82
2018-07-09T14:52:39.754Z,25.54
2018-07-09T14:55:44.129Z,24.91
2018-07-09T14:58:48.617Z,24.88
2018-07-09T15:01:52.953Z,24.91
2018-07-09T15:04:57.259Z,25.30
2018-07-09T15:08:01.741Z,25.34
2018-07-09T15:11:06.686Z,25.68
2018-07-09T15:14:11.148Z,25.34
2018-07-09T15:17:15.884Z,25.62
2018-07-09T15:20:20.217Z,25.76
2018-07-09T15:23:38.441Z,25.91
2018-07-09T15:26:42.890Z,26.12
2018-07-09T15:29:49.366Z,25.69
2018-07-09T15:32:54.825Z,25.82
2018-07-09T15:36:07.215Z,26.17
2018-07-09T15:39:11.881Z,25.66
2018-07-09T15:42:16.557Z,26.11
2018-07-09T15:45:23.815Z,26.38
2018-07-09T15:48:29.049Z,26.39
2018-07-09T15:51:33.457Z,26.03
2018-07-09T15:54:41.531Z,25.92
2018-07-09T15:57:46.445Z,25.88
2018-07-09T16:00:50.951Z,26.07
2018-07-09T16:03:55.385Z,25.55
2018-07-09T16:06:59.649Z,25.07
2018-07-09T16:10:04.141Z,24.70
2018-07-09T16:13:08.646Z,24.57
2018-07-09T16:16:13.509Z,24.51
2018-07-09T16:19:18.369Z,24.40
2018-07-09T16:22:23.189Z,24.23
2018-07-09T16:25:28.682Z,24.16
2018-07-09T16:28:33.407Z,24.14
2018-07-09T16:31:38.755Z,24.10
2018-07-09T16:34:43.824Z,24.16
2018-07-09T16:37:48.738Z,24.12
2018-07-09T16:40:53.260Z,24.08
2018-07-09T16:43:57.885Z,24.09
2018-07-09T16:47:02.016Z,24.14
2018-07-09T16:50:06.575Z,24.05
2018-07-09T16:53:11.250Z,24.05
2018-07-09T16:56:16.706Z,24.16
2018-07-09T16:59:21.074Z,24.21
2018-07-09T17:02:25.525Z,24.34
2018-07-09T17:05:30.901Z,24.41
2018-07-09T17:08:35.227Z,24.90
2018-07-09T17:11:39.737Z,24.73
2018-07-09T17:14:44.175Z,24.84
2018-07-09T17:17:48.477Z,25.29
2018-07-09T17:20:52.728Z,25.45
2018-07-09T17:23:57.004Z,25.42
2018-07-09T17:27:01.516Z,25.54
2018-07-09T17:30:05.905Z,25.17
2018-07-09T17:33:10.988Z,25.33
2018-07-09T17:36:15.272Z,25.37
2018-07-09T17:39:19.340Z,25.41
2018-07-09T17:42:24.308Z,25.44
2018-07-09T17:45:29.450Z,25.10
2018-07-09T17:48:33.765Z,25.12
2018-07-09T17:51:38.068Z,24.53
2018-07-09T17:54:42.901Z,24.36
2018-07-09T17:57:47.242Z,23.91
2018-07-09T18:00:52.667Z,23.59
2018-07-09T18:03:56.798Z,23.32
2018-07-09T18:07:01.225Z,23.15
2018-07-09T18:10:05.598Z,23.03
2018-07-09T18:13:10.264Z,22.87
2018-07-09T18:16:14.641Z,22.78
2018-07-09T18:19:18.985Z,22.72
2018-07-09T18:22:23.481Z,22.70
2018-07-09T18:25:28.414Z,22.69
2018-07-09T18:28:32.870Z,22.65
2018-07-09T18:31:37.869Z,22.63
2018-07-09T18:34:42.209Z,22.73
2018-07-09T18:37:46.515Z,22.75
2018-07-09T18:40:51.874Z,22.57
2018-07-09T18:43:56.952Z,22.55
2018-07-09T18:47:01.339Z,22.72
2018-07-09T18:50:05.673Z,22.60
2018-07-09T18:53:10.105Z,22.78
2018-07-09T18:56:14.493Z,22.63
2018-07-09T18:59:18.835Z,22.52
2018-07-09T19:02:23.918Z,22.20
2018-07-09T19:05:42.037Z,21.89
2018-07-09T19:08:46.357Z,21.91
2018-07-09T19:11:50.685Z,21.69
2018-07-09T19:14:54.991Z,21.51
2018-07-09T19:18:17.947Z,21.41
2018-07-09T19:21:41.469Z,21.29
2018-07-09T19:24:44.226Z,21.12
2018-07-09T19:27:47.464Z,21.11
2018-07-09T19:30:50.192Z,21.01
2018-07-09T19:37:01.505Z,20.94
2018-07-09T19:40:05.160Z,20.77
2018-07-09T19:43:07.886Z,20.68
2018-07-09T19:46:11.241Z,20.53
2018-07-09T19:49:13.996Z,20.44
2018-07-09T19:52:16.946Z,20.34
2018-07-09T19:55:19.946Z,20.24
2018-07-09T19:58:22.677Z,20.20
2018-07-09T20:01:26.188Z,20.08
2018-07-09T20:04:28.935Z,19.98
2018-07-09T20:07:31.697Z,19.94
2018-07-09T20:10:39.670Z,19.89
2018-07-09T20:13:51.374Z,19.81
2018-07-09T20:17:00.286Z,19.74
2018-07-09T20:20:03.056Z,19.56
2018-07-09T20:23:05.804Z,19.42
2018-07-09T20:26:08.571Z,19.15
2018-07-09T20:29:11.641Z,19.16
2018-07-09T20:32:14.346Z,19.18
2018-07-09T20:35:17.106Z,19.12
2018-07-09T20:38:20.292Z,19.00
2018-07-09T20:41:23.010Z,18.97
2018-07-09T20:44:27.331Z,19.01
2018-07-09T20:47:30.250Z,18.97
2018-07-09T20:50:32.957Z,18.84
2018-07-09T20:53:35.671Z,18.63
2018-07-09T20:56:38.386Z,18.30
2018-07-09T20:59:41.236Z,18.42
2018-07-09T21:02:44.192Z,18.55
2018-07-09T21:05:46.898Z,18.61
2018-07-09T21:08:49.944Z,18.64
2018-07-09T21:11:52.689Z,18.64
2018-07-09T21:14:55.436Z,18.75
2018-07-09T21:17:58.286Z,18.70
2018-07-09T21:21:00.993Z,18.68
2018-07-09T21:24:04.003Z,18.68
2018-07-09T21:27:07.720Z,18.65
2018-07-09T21:30:10.694Z,18.62
2018-07-09T21:33:13.649Z,18.65
2018-07-09T21:36:16.654Z,18.66
2018-07-09T21:39:19.360Z,18.62
2018-07-09T21:42:22.217Z,18.60
2018-07-09T21:45:24.909Z,18.57
2018-07-09T21:48:29.777Z,18.55
2018-07-09T21:51:31.722Z,18.60
2018-07-09T21:54:35.228Z,18.63
2018-07-09T21:57:38.006Z,18.59
2018-07-09T22:00:41.698Z,18.52
2018-07-09T22:03:44.412Z,18.55
2018-07-09T22:06:47.222Z,18.38
2018-07-09T22:09:50.225Z,18.46
2018-07-09T22:12:53.083Z,18.36
2018-07-09T22:15:55.784Z,18.35
2018-07-09T22:18:58.641Z,18.37
2018-07-09T22:22:01.346Z,18.24
2018-07-09T22:25:04.446Z,18.26
2018-07-09T22:28:07.176Z,18.30
2018-07-09T22:31:11.521Z,18.37
2018-07-09T22:34:15.782Z,18.26
2018-07-09T22:37:21.165Z,18.15
2018-07-09T22:40:26.093Z,18.18
2018-07-09T22:43:47.565Z,18.04
2018-07-09T22:46:51.839Z,17.92
2018-07-09T22:49:58.640Z,17.72
2018-07-09T22:53:02.932Z,17.66
2018-07-09T22:56:11.617Z,17.51
2018-07-09T22:59:15.868Z,17.51
2018-07-09T23:02:20.542Z,17.56
2018-07-09T23:05:24.897Z,17.53
2018-07-09T23:08:29.186Z,17.51
2018-07-09T23:12:26.611Z,17.47
2018-07-09T23:15:48.276Z,17.22
2018-07-09T23:19:09.860Z,17.35
2018-07-09T23:22:19.720Z,17.30
2018-07-09T23:25:22.423Z,17.22
2018-07-09T23:28:25.151Z,17.18
2018-07-09T23:31:27.969Z,17.15
2018-07-09T23:34:30.710Z,17.00
2018-07-09T23:37:33.413Z,16.99
2018-07-09T23:40:36.112Z,16.88
2018-07-09T23:43:38.829Z,16.79
2018-07-09T23:46:41.565Z,16.80
2018-07-09T23:49:44.264Z,16.66
2018-07-09T23:52:46.994Z,16.69
2018-07-09T23:56:01.938Z,16.66
2018-07-09T23:59:49.644Z,16.57
